createdAt,value
2018-10-17T00:00:28.955Z,11.90
2018-10-17T00:02:57.633Z,11.93
2018-10-17T00:05:26.423Z,11.97
2018-10-17T00:07:55.100Z,12.13
2018-10-17T00:10:23.792Z,13.17
2018-10-17T00:12:52.497Z,11.85
2018-10-17T00:15:21.160Z,13.00
2018-10-17T00:17:49.846Z,10.90
2018-10-17T00:20:18.569Z,11.60
2018-10-17T00:22:47.261Z,11.70
2018-10-17T00:25:16.018Z,11.57
2018-10-17T00:27:44.636Z,12.23
2018-10-17T00:30:13.905Z,12.10
2018-10-17T00:32:42.624Z,12.30
2018-10-17T00:35:11.390Z,11.50
2018-10-17T00:37:40.052Z,11.97
2018-10-17T00:40:08.847Z,13.98
2018-10-17T00:42:37.827Z,13.33
2018-10-17T00:45:07.136Z,13.27
2018-10-17T00:47:35.829Z,14.40
2018-10-17T00:50:04.531Z,13.10
2018-10-17T00:52:33.216Z,12.97
2018-10-17T00:55:01.959Z,12.43
2018-10-17T00:57:30.580Z,13.17
2018-10-17T00:59:59.264Z,12.43
2018-10-17T01:02:27.955Z,14.20
2018-10-17T01:04:56.687Z,12.97
2018-10-17T01:07:25.332Z,11.80
2018-10-17T01:09:54.283Z,11.95
2018-10-17T01:12:22.964Z,10.60
2018-10-17T01:14:51.652Z,10.63
2018-10-17T01:17:20.350Z,11.40
2018-10-17T01:19:49.020Z,11.07
2018-10-17T01:22:17.708Z,10.23
2018-10-17T01:24:46.421Z,10.37
2018-10-17T01:27:15.108Z,11.43
2018-10-17T01:29:43.797Z,11.07
2018-10-17T01:32:12.476Z,11.30
2018-10-17T01:34:41.403Z,11.43
2018-10-17T01:37:10.155Z,13.00
2018-10-17T01:39:38.770Z,10.87
2018-10-17T01:42:07.466Z,12.53
2018-10-17T01:44:36.142Z,11.53
2018-10-17T01:47:04.899Z,13.00
2018-10-17T01:49:33.535Z,12.53
2018-10-17T01:52:02.226Z,11.97
2018-10-17T01:54:30.904Z,13.43
2018-10-17T01:56:59.587Z,11.57
2018-10-17T01:59:29.044Z,12.37
2018-10-17T02:01:57.739Z,11.17
2018-10-17T02:04:26.403Z,10.40
2018-10-17T02:06:55.119Z,12.07
2018-10-17T02:09:23.775Z,11.97
2018-10-17T02:11:52.462Z,12.50
2018-10-17T02:14:21.143Z,10.93
2018-10-17T02:16:49.831Z,12.63
2018-10-17T02:19:18.512Z,10.83
2018-10-17T02:21:48.110Z,11.75
2018-10-17T02:24:16.816Z,11.83
2018-10-17T02:26:45.500Z,12.97
2018-10-17T02:29:14.282Z,11.00
2018-10-17T02:31:42.871Z,10.17
2018-10-17T02:34:11.547Z,12.13
2018-10-17T02:36:40.336Z,12.27
2018-10-17T02:39:10.303Z,12.82
2018-10-17T02:41:38.979Z,13.00
2018-10-17T02:44:07.984Z,11.47
2018-10-17T02:46:36.878Z,11.50
2018-10-17T02:49:06.223Z,9.98
2018-10-17T02:51:34.871Z,10.23
2018-10-17T02:54:03.547Z,10.43
2018-10-17T02:56:32.252Z,11.97
2018-10-17T02:59:00.990Z,11.57
2018-10-17T03:01:29.627Z,12.90
2018-10-17T03:03:58.308Z,11.07
2018-10-17T03:06:27.272Z,11.70
2018-10-17T03:08:55.960Z,12.00
2018-10-17T03:11:24.640Z,11.77
2018-10-17T03:13:53.316Z,11.05
2018-10-17T03:16:22.013Z,11.60
2018-10-17T03:18:50.708Z,12.60
2018-10-17T03:21:19.395Z,12.40
2018-10-17T03:23:48.120Z,11.20
2018-10-17T03:26:16.803Z,13.07
2018-10-17T03:28:45.490Z,11.70
2018-10-17T03:31:14.327Z,10.30
2018-10-17T03:33:42.865Z,12.13
2018-10-17T03:36:11.563Z,12.13
2018-10-17T03:38:40.312Z,10.53
2018-10-17T03:41:09.060Z,10.80
2018-10-17T03:43:37.687Z,9.77
2018-10-17T03:46:06.428Z,11.27
2018-10-17T03:48:35.116Z,10.82
2018-10-17T03:51:03.784Z,11.03
2018-10-17T03:53:32.485Z,10.50
2018-10-17T03:56:01.277Z,10.53
2018-10-17T03:58:29.964Z,11.70
2018-10-17T04:00:58.719Z,12.50
2018-10-17T04:03:27.336Z,12.20
2018-10-17T04:05:56.019Z,11.83
2018-10-17T04:08:24.707Z,11.90
2018-10-17T04:10:53.480Z,10.83
2018-10-17T04:13:22.117Z,11.53
2018-10-17T04:15:50.792Z,12.63
2018-10-17T04:18:19.481Z,11.03
2018-10-17T04:20:48.209Z,11.53
2018-10-17T04:23:16.929Z,10.07
2018-10-17T04:25:45.540Z,11.13
2018-10-17T04:28:14.234Z,11.97
2018-10-17T04:30:42.917Z,10.87
2018-10-17T04:33:11.613Z,11.25
2018-10-17T04:35:40.297Z,11.67
2018-10-17T04:38:08.989Z,12.27
2018-10-17T04:40:37.663Z,12.20
2018-10-17T04:43:06.364Z,11.13
2018-10-17T04:45:35.181Z,11.50
2018-10-17T04:48:04.006Z,11.80
2018-10-17T04:50:32.692Z,11.63
2018-10-17T04:53:01.431Z,12.70
2018-10-17T04:55:30.070Z,13.08
2018-10-17T04:57:59.320Z,11.20
2018-10-17T05:00:27.996Z,9.95
2018-10-17T05:02:56.683Z,10.20
2018-10-17T05:05:25.372Z,11.80
2018-10-17T05:07:54.051Z,12.07
2018-10-17T05:10:22.737Z,12.33
2018-10-17T05:12:51.465Z,11.30
2018-10-17T05:15:20.229Z,11.70
2018-10-17T05:17:48.793Z,10.93
2018-10-17T05:20:18.197Z,10.90
2018-10-17T05:22:46.897Z,11.03
2018-10-17T05:25:15.595Z,12.30
2018-10-17T05:27:44.269Z,11.70
2018-10-17T05:30:15.889Z,11.50
2018-10-17T05:32:44.592Z,10.20
2018-10-17T05:35:13.345Z,12.03
2018-10-17T05:37:42.097Z,11.30
2018-10-17T05:40:10.656Z,10.97
2018-10-17T05:42:39.396Z,11.67
2018-10-17T05:45:08.211Z,12.53
2018-10-17T05:47:36.896Z,11.30
2018-10-17T05:50:05.576Z,12.67
2018-10-17T05:52:34.273Z,12.23
2018-10-17T05:55:02.997Z,12.30
2018-10-17T05:57:31.652Z,12.40
2018-10-17T06:00:00.332Z,10.38
2018-10-17T06:02:32.479Z,10.30
2018-10-17T06:05:01.089Z,10.50
2018-10-17T06:07:30.080Z,10.73
2018-10-17T06:09:58.794Z,13.20
2018-10-17T06:12:27.652Z,10.00
2018-10-17T06:14:56.364Z,11.47
2018-10-17T06:17:25.106Z,12.82
2018-10-17T06:19:53.744Z,11.13
2018-10-17T06:22:22.453Z,11.80
2018-10-17T06:24:51.176Z,10.70
2018-10-17T06:27:19.835Z,10.90
2018-10-17T06:29:48.549Z,10.50
2018-10-17T06:32:17.223Z,11.97
2018-10-17T06:34:46.088Z,12.20
2018-10-17T06:37:14.763Z,11.13
2018-10-17T06:39:43.312Z,9.70
2018-10-17T06:42:12.169Z,10.60
2018-10-17T06:44:40.868Z,10.77
2018-10-17T06:47:09.682Z,10.33
2018-10-17T06:49:38.231Z,9.23
2018-10-17T06:52:06.920Z,12.80
2018-10-17T06:54:35.828Z,10.90
2018-10-17T06:57:04.716Z,9.57
2018-10-17T06:59:33.403Z,10.43
2018-10-17T07:02:02.152Z,10.83
2018-10-17T07:04:30.780Z,12.37
2018-10-17T07:06:59.489Z,10.87
2018-10-17T07:09:28.152Z,12.60
2018-10-17T07:11:56.836Z,13.83
2018-10-17T07:14:28.144Z,13.73
2018-10-17T07:16:57.465Z,12.95
2018-10-17T07:19:26.233Z,14.17
2018-10-17T07:21:54.912Z,14.20
2018-10-17T07:24:23.646Z,15.60
2018-10-17T07:26:52.327Z,15.87
2018-10-17T07:29:21.167Z,15.67
2018-10-17T07:31:49.696Z,16.82
2018-10-17T07:34:18.396Z,16.87
2018-10-17T07:36:48.244Z,16.90
2018-10-17T07:39:16.928Z,15.23
2018-10-17T07:41:45.602Z,15.37
2018-10-17T07:44:14.310Z,18.53
2018-10-17T07:46:42.989Z,19.30
2018-10-17T07:49:11.670Z,19.43
2018-10-17T07:51:40.357Z,19.07
2018-10-17T07:54:09.524Z,20.08
2018-10-17T07:56:38.149Z,19.70
2018-10-17T07:59:06.853Z,19.27
2018-10-17T08:01:35.527Z,19.90
2018-10-17T08:04:04.266Z,21.07
2018-10-17T08:06:32.954Z,20.03
2018-10-17T08:09:01.655Z,19.30
2018-10-17T08:11:30.347Z,19.10
2018-10-17T08:13:59.113Z,17.47
2018-10-17T08:16:27.711Z,16.47
2018-10-17T08:18:56.400Z,16.42
2018-10-17T08:21:25.110Z,16.50
2018-10-17T08:23:53.805Z,16.90
2018-10-17T08:26:22.552Z,17.50
2018-10-17T08:28:51.255Z,17.03
2018-10-17T08:31:19.939Z,17.63
2018-10-17T08:33:48.637Z,17.50
2018-10-17T08:36:17.563Z,16.90
2018-10-17T08:38:46.015Z,15.20
2018-10-17T08:41:14.741Z,13.23
2018-10-17T08:43:43.565Z,14.50
2018-10-17T08:46:12.747Z,14.65
2018-10-17T08:48:41.444Z,13.20
2018-10-17T08:51:10.475Z,14.30
2018-10-17T08:53:39.121Z,13.93
2018-10-17T08:56:07.820Z,14.43
2018-10-17T08:58:36.552Z,14.67
2018-10-17T09:01:05.515Z,13.77
2018-10-17T09:03:34.209Z,13.80
2018-10-17T09:06:03.268Z,14.13
2018-10-17T09:08:31.865Z,14.43
2018-10-17T09:11:00.554Z,16.17
2018-10-17T09:13:29.245Z,17.03
2018-10-17T09:15:57.937Z,16.67
2018-10-17T09:18:26.620Z,17.03
2018-10-17T09:20:55.640Z,17.23
2018-10-17T09:23:24.191Z,19.40
2018-10-17T09:25:52.890Z,15.93
2018-10-17T09:28:21.581Z,15.58
2018-10-17T09:30:50.276Z,16.12
2018-10-17T09:33:18.968Z,16.23
2018-10-17T09:35:47.684Z,16.43
2018-10-17T09:38:16.335Z,16.57
2018-10-17T09:40:45.081Z,16.40
2018-10-17T09:43:13.837Z,15.60
2018-10-17T09:45:42.478Z,17.17
2018-10-17T09:48:11.162Z,15.33
2018-10-17T09:50:39.853Z,17.50
2018-10-17T09:53:08.607Z,17.87
2018-10-17T09:55:37.401Z,17.15
2018-10-17T09:58:06.121Z,16.87
2018-10-17T10:00:40.324Z,17.23
2018-10-17T10:03:08.995Z,17.77
2018-10-17T10:05:37.704Z,17.00
2018-10-17T10:08:06.377Z,17.87
2018-10-17T10:10:35.072Z,17.47
2018-10-17T10:13:03.871Z,18.67
2018-10-17T10:15:32.576Z,17.50
2018-10-17T10:18:01.263Z,16.00
2018-10-17T10:20:29.955Z,16.47
2018-10-17T10:22:58.655Z,17.67
2018-10-17T10:25:27.432Z,15.47
2018-10-17T10:27:56.078Z,15.93
2018-10-17T10:30:24.855Z,15.13
2018-10-17T10:32:53.480Z,13.57
2018-10-17T10:35:22.177Z,13.80
2018-10-17T10:37:50.877Z,14.80
2018-10-17T10:40:19.573Z,14.37
2018-10-17T10:42:48.401Z,14.40
2018-10-17T10:45:17.264Z,14.00
2018-10-17T10:47:45.836Z,14.43
2018-10-17T10:50:14.709Z,13.30
2018-10-17T10:52:43.301Z,14.87
2018-10-17T10:55:12.001Z,14.43
2018-10-17T10:57:40.684Z,15.07
2018-10-17T11:00:09.462Z,13.67
2018-10-17T11:02:38.076Z,14.97
2018-10-17T11:05:06.876Z,13.37
2018-10-17T11:07:35.471Z,13.33
2018-10-17T11:10:04.396Z,13.57
2018-10-17T11:12:33.091Z,13.93
2018-10-17T11:15:01.968Z,13.43
2018-10-17T11:17:30.701Z,14.53
2018-10-17T11:19:59.400Z,14.10
2018-10-17T11:22:28.101Z,13.80
2018-10-17T11:24:56.977Z,14.60
2018-10-17T11:27:25.660Z,13.03
2018-10-17T11:29:54.396Z,13.67
2018-10-17T11:32:23.093Z,12.80
2018-10-17T11:34:51.801Z,12.60
2018-10-17T11:37:20.520Z,12.70
2018-10-17T11:39:49.183Z,11.83
2018-10-17T11:42:17.880Z,14.77
2018-10-17T11:44:46.589Z,13.57
2018-10-17T11:47:15.500Z,14.27
2018-10-17T11:49:44.119Z,14.77
2018-10-17T11:52:12.820Z,14.68
2018-10-17T11:54:41.504Z,14.90
2018-10-17T11:57:10.311Z,15.63
2018-10-17T11:59:38.976Z,15.70
2018-10-17T12:02:07.604Z,15.20
2018-10-17T12:04:36.521Z,15.57
2018-10-17T12:07:05.069Z,14.70
2018-10-17T12:09:33.747Z,15.43
2018-10-17T12:12:02.586Z,15.20
2018-10-17T12:14:31.135Z,15.15
2018-10-17T12:16:59.823Z,15.73
2018-10-17T12:19:28.512Z,15.37
2018-10-17T12:21:57.217Z,17.27
2018-10-17T12:24:25.903Z,17.30
2018-10-17T12:26:54.682Z,15.67
2018-10-17T12:29:23.340Z,16.27
2018-10-17T12:31:52.074Z,14.53
2018-10-17T12:34:20.774Z,15.23
2018-10-17T12:36:49.459Z,17.17
2018-10-17T12:39:18.234Z,15.50
2018-10-17T12:41:47.008Z,15.43
2018-10-17T12:44:15.770Z,16.10
2018-10-17T12:46:44.388Z,15.77
2018-10-17T12:49:13.143Z,16.40
2018-10-17T12:51:41.758Z,16.87
2018-10-17T12:54:10.512Z,15.17
2018-10-17T12:56:39.220Z,13.87
2018-10-17T12:59:07.984Z,16.30
2018-10-17T13:01:36.675Z,15.90
2018-10-17T13:04:05.485Z,14.70
2018-10-17T13:06:34.173Z,15.47
2018-10-17T13:09:02.865Z,16.20
2018-10-17T13:11:31.600Z,15.07
2018-10-17T13:14:00.260Z,16.97
2018-10-17T13:16:28.961Z,17.00
2018-10-17T13:18:57.700Z,14.60
2018-10-17T13:21:26.460Z,15.47
2018-10-17T13:23:55.155Z,16.57
2018-10-17T13:26:23.842Z,16.03
2018-10-17T13:28:52.590Z,17.03
2018-10-17T13:31:21.248Z,15.97
2018-10-17T13:33:49.995Z,14.17
2018-10-17T13:36:18.635Z,15.73
2018-10-17T13:38:48.276Z,16.87
2018-10-17T13:41:17.071Z,16.50
2018-10-17T13:43:45.732Z,15.20
2018-10-17T13:46:14.448Z,16.87
2018-10-17T13:48:43.136Z,15.27
2018-10-17T13:51:11.832Z,16.70
2018-10-17T13:53:40.515Z,15.27
2018-10-17T13:56:09.256Z,15.60
2018-10-17T13:58:37.941Z,14.70
2018-10-17T14:01:06.683Z,15.50
2018-10-17T14:03:35.320Z,14.57
2018-10-17T14:06:04.213Z,15.73
2018-10-17T14:08:32.871Z,14.98
2018-10-17T14:11:01.591Z,15.23
2018-10-17T14:13:30.407Z,13.40
2018-10-17T14:15:58.996Z,13.93
2018-10-17T14:18:27.731Z,14.63
2018-10-17T14:20:56.511Z,14.20
2018-10-17T14:23:25.173Z,12.90
2018-10-17T14:25:53.859Z,13.50
2018-10-17T14:28:22.567Z,15.37
2018-10-17T14:30:51.337Z,13.87
2018-10-17T14:33:20.056Z,13.40
2018-10-17T14:35:48.804Z,14.93
2018-10-17T14:38:17.522Z,12.53
2018-10-17T14:40:46.331Z,14.03
2018-10-17T14:43:14.943Z,12.33
2018-10-17T14:45:43.644Z,13.83
2018-10-17T14:48:12.424Z,13.30
2018-10-17T14:50:41.033Z,12.95
2018-10-17T14:53:09.833Z,13.87
2018-10-17T14:55:38.512Z,13.70
2018-10-17T14:58:07.452Z,12.97
2018-10-17T15:00:36.133Z,13.00
2018-10-17T15:03:05.082Z,13.60
2018-10-17T15:05:33.714Z,13.33
2018-10-17T15:08:02.440Z,13.97
2018-10-17T15:10:31.356Z,13.23
2018-10-17T15:12:59.986Z,13.40
2018-10-17T15:15:28.670Z,13.57
2018-10-17T15:17:57.390Z,13.00
2018-10-17T15:20:26.085Z,12.97
2018-10-17T15:22:54.808Z,13.40
2018-10-17T15:25:23.500Z,11.97
2018-10-17T15:27:52.196Z,12.98
2018-10-17T15:30:21.171Z,13.10
2018-10-17T15:32:49.868Z,11.70
2018-10-17T15:35:18.560Z,12.27
2018-10-17T15:37:47.268Z,13.18
2018-10-17T15:40:15.964Z,12.80
2018-10-17T15:42:44.658Z,14.10
2018-10-17T15:45:13.398Z,13.30
2018-10-17T15:47:42.360Z,13.78
2018-10-17T15:50:11.104Z,12.60
2018-10-17T15:52:39.800Z,14.43
2018-10-17T15:55:08.530Z,14.37
2018-10-17T15:57:37.231Z,14.67
2018-10-17T16:00:08.477Z,14.60
2018-10-17T16:02:37.316Z,15.40
2018-10-17T16:05:07.187Z,15.03
2018-10-17T16:07:35.913Z,14.20
2018-10-17T16:10:04.750Z,13.97
2018-10-17T16:12:33.467Z,14.30
2018-10-17T16:15:02.164Z,14.80
2018-10-17T16:17:30.886Z,14.10
2018-10-17T16:19:59.571Z,14.40
2018-10-17T16:22:28.275Z,13.72
2018-10-17T16:24:57.065Z,14.67
2018-10-17T16:27:25.760Z,13.97
2018-10-17T16:29:54.737Z,13.27
2018-10-17T16:32:23.453Z,13.83
2018-10-17T16:34:52.164Z,14.77
2018-10-17T16:37:20.851Z,14.90
2018-10-17T16:39:49.568Z,14.20
2018-10-17T16:42:18.520Z,12.90
2018-10-17T16:44:47.136Z,14.07
2018-10-17T16:47:15.860Z,13.72
2018-10-17T16:49:44.630Z,14.50
2018-10-17T16:52:13.249Z,16.30
2018-10-17T16:54:41.939Z,16.20
2018-10-17T16:57:11.136Z,18.00
2018-10-17T16:59:46.348Z,18.37
2018-10-17T17:02:15.233Z,22.10
2018-10-17T17:04:43.936Z,24.10
2018-10-17T17:07:12.624Z,32.75
2018-10-17T17:09:41.320Z,37.60
2018-10-17T17:12:10.083Z,50.60
2018-10-17T17:14:38.817Z,41.07
2018-10-17T17:17:07.407Z,35.53
2018-10-17T17:19:36.109Z,22.37
2018-10-17T17:22:05.014Z,18.40
2018-10-17T17:24:33.707Z,19.93
2018-10-17T17:27:02.944Z,19.20
2018-10-17T17:29:31.639Z,19.13
2018-10-17T17:32:00.294Z,17.37
2018-10-17T17:34:29.017Z,15.87
2018-10-17T17:36:57.723Z,18.07
2018-10-17T17:39:26.416Z,17.17
2018-10-17T17:41:55.159Z,16.50
2018-10-17T17:44:23.854Z,15.10
2018-10-17T17:46:52.506Z,17.23
2018-10-17T17:49:21.279Z,17.23
2018-10-17T17:51:49.968Z,16.47
2018-10-17T17:54:18.663Z,15.48
2018-10-17T17:56:47.360Z,14.90
2018-10-17T17:59:16.065Z,14.27
2018-10-17T18:01:44.788Z,13.35
2018-10-17T18:04:13.573Z,13.83
2018-10-17T18:06:42.272Z,13.00
2018-10-17T18:09:12.165Z,18.17
2018-10-17T18:11:40.865Z,18.20
2018-10-17T18:14:10.174Z,17.90
2018-10-17T18:16:38.820Z,16.17
2018-10-17T18:19:07.524Z,17.83
2018-10-17T18:21:36.224Z,20.00
2018-10-17T18:24:05.049Z,21.23
2018-10-17T18:26:33.795Z,20.67
2018-10-17T18:29:02.496Z,19.50
2018-10-17T18:31:31.184Z,19.00
2018-10-17T18:33:59.924Z,18.67
2018-10-17T18:36:28.547Z,20.50
2018-10-17T18:38:57.255Z,18.70
2018-10-17T18:41:26.132Z,18.93
2018-10-17T18:43:54.883Z,18.13
2018-10-17T18:46:23.613Z,15.37
2018-10-17T18:48:58.825Z,14.63
2018-10-17T18:51:27.537Z,14.87
2018-10-17T18:53:56.248Z,15.25
2018-10-17T18:56:24.936Z,14.60
2018-10-17T18:58:53.736Z,15.87
2018-10-17T19:01:22.490Z,18.73
2018-10-17T19:03:51.230Z,18.13
2018-10-17T19:06:19.936Z,16.40
2018-10-17T19:08:48.632Z,15.67
2018-10-17T19:11:17.308Z,18.07
2018-10-17T19:13:46.032Z,18.63
2018-10-17T19:16:14.882Z,18.70
2018-10-17T19:18:43.419Z,17.17
2018-10-17T19:21:12.141Z,18.67
2018-10-17T19:23:40.805Z,20.00
2018-10-17T19:26:09.483Z,19.00
2018-10-17T19:28:38.315Z,18.63
2018-10-17T19:31:06.984Z,21.27
2018-10-17T19:33:35.692Z,22.17
2018-10-17T19:36:04.501Z,22.77
2018-10-17T19:38:33.123Z,20.27
2018-10-17T19:41:01.831Z,21.50
2018-10-17T19:43:30.590Z,18.30
2018-10-17T19:45:59.248Z,18.53
2018-10-17T19:48:27.949Z,18.53
2018-10-17T19:50:56.647Z,20.10
2018-10-17T19:53:25.345Z,21.67
2018-10-17T19:55:54.087Z,19.53
2018-10-17T19:58:22.734Z,23.17
2018-10-17T20:00:51.520Z,20.57
2018-10-17T20:03:21.272Z,19.53
2018-10-17T20:05:49.984Z,17.73
2018-10-17T20:08:18.704Z,19.80
2018-10-17T20:10:48.351Z,21.73
2018-10-17T20:13:17.044Z,21.57
2018-10-17T20:15:45.884Z,22.23
2018-10-17T20:18:14.574Z,22.60
2018-10-17T20:20:43.280Z,22.20
2018-10-17T20:23:12.013Z,22.67
2018-10-17T20:25:40.708Z,21.82
2018-10-17T20:28:09.400Z,21.90
2018-10-17T20:30:39.013Z,25.43
2018-10-17T20:33:07.786Z,23.70
2018-10-17T20:35:36.401Z,20.90
2018-10-17T20:38:05.509Z,21.15
2018-10-17T20:40:34.201Z,20.13
2018-10-17T20:43:02.880Z,19.83
2018-10-17T20:45:31.571Z,19.63
2018-10-17T20:48:00.253Z,19.97
2018-10-17T20:50:29.001Z,25.53
2018-10-17T20:52:57.697Z,24.47
2018-10-17T20:55:26.428Z,24.97
2018-10-17T20:57:55.154Z,26.43
2018-10-17T21:00:23.949Z,25.27
2018-10-17T21:02:52.626Z,25.23
2018-10-17T21:05:21.332Z,26.57
2018-10-17T21:07:50.019Z,26.97
2018-10-17T21:10:18.709Z,26.30
2018-10-17T21:12:47.387Z,26.80
2018-10-17T21:15:16.083Z,24.75
2018-10-17T21:17:44.760Z,27.63
2018-10-17T21:20:13.556Z,25.53
2018-10-17T21:22:42.145Z,27.13
2018-10-17T21:25:10.886Z,27.07
2018-10-17T21:27:39.604Z,28.53
2018-10-17T21:30:09.235Z,24.67
2018-10-17T21:32:37.924Z,25.27
2018-10-17T21:35:07.101Z,23.50
2018-10-17T21:37:35.994Z,26.97
2018-10-17T21:40:04.969Z,23.18
2018-10-17T21:42:33.647Z,23.77
2018-10-17T21:45:02.357Z,20.75
2018-10-17T21:47:31.044Z,21.70
2018-10-17T21:49:59.782Z,23.30
2018-10-17T21:52:28.465Z,24.93
2018-10-17T21:54:57.160Z,24.83
2018-10-17T21:57:25.844Z,24.13
2018-10-17T21:59:54.548Z,23.57
2018-10-17T22:02:23.250Z,23.57
2018-10-17T22:04:51.949Z,23.73
2018-10-17T22:07:20.631Z,23.87
2018-10-17T22:09:49.329Z,23.87
2018-10-17T22:12:17.991Z,24.90
2018-10-17T22:14:46.683Z,26.47
2018-10-17T22:17:15.375Z,24.40
2018-10-17T22:19:44.084Z,24.13
2018-10-17T22:22:12.727Z,24.77
2018-10-17T22:24:41.404Z,21.97
2018-10-17T22:27:10.117Z,23.80
2018-10-17T22:29:38.801Z,25.17
2018-10-17T22:32:07.555Z,23.33
2018-10-17T22:34:36.172Z,26.63
2018-10-17T22:37:05.296Z,27.63
2018-10-17T22:39:33.973Z,28.63
2018-10-17T22:42:02.664Z,28.13
2018-10-17T22:44:31.343Z,26.03
2018-10-17T22:47:00.035Z,24.50
2018-10-17T22:49:28.716Z,25.53
2018-10-17T22:51:57.408Z,23.90
2018-10-17T22:54:26.092Z,25.40
2018-10-17T22:56:54.793Z,26.90
2018-10-17T22:59:23.516Z,27.53
2018-10-17T23:01:52.251Z,23.30
2018-10-17T23:04:20.928Z,26.63
2018-10-17T23:06:49.620Z,26.20
2018-10-17T23:09:18.400Z,28.10
2018-10-17T23:11:47.091Z,24.05
2018-10-17T23:14:15.822Z,22.87
2018-10-17T23:16:44.455Z,24.47
2018-10-17T23:19:13.134Z,21.57
2018-10-17T23:21:42.048Z,23.37
2018-10-17T23:24:10.734Z,19.90
2018-10-17T23:26:39.430Z,20.30
2018-10-17T23:29:09.015Z,19.70
2018-10-17T23:31:37.714Z,21.13
2018-10-17T23:34:06.392Z,21.27
2018-10-17T23:36:35.075Z,19.60
2018-10-17T23:39:05.000Z,20.63
2018-10-17T23:41:33.695Z,20.67
2018-10-17T23:44:02.505Z,21.27
2018-10-17T23:46:31.095Z,19.83
2018-10-17T23:48:59.776Z,21.30
2018-10-17T23:51:28.451Z,20.80
2018-10-17T23:53:57.168Z,21.80
2018-10-17T23:56:25.825Z,23.10
2018-10-17T23:58:54.504Z,22.53
